Time;durP1;ratioP1;P1;durP2;ratioP2;P2;SDS_P1;SDS_P2;PMS_P1;PMS_P2;Temp;Humidity;BMP_temperature;BMP_pressure;BME280_temperature;BME280_humidity;BME280_pressure;Samples;Min_cycle;Max_cycle;Signal;HPM_P1;HPM_P2
2023/04/26 00:00:46;;;;;;;16.80;2.97;;;27.00;99.90;;;;;;5072047;28;20237;-71
2023/04/26 00:03:13;;;;;;;13.30;3.67;;;27.60;99.90;;;;;;5072062;28;20168;-76
2023/04/26 00:09:47;;;;;;;10.80;2.70;;;26.90;99.90;;;;;;5071761;28;20592;-74
2023/04/26 00:12:14;;;;;;;11.00;3.20;;;27.20;99.90;;;;;;5071572;28;20255;-70
2023/04/26 00:14:42;;;;;;;12.98;3.15;;;27.40;99.90;;;;;;5071614;28;20276;-71
2023/04/26 00:17:10;;;;;;;8.40;2.70;;;27.90;99.90;;;;;;5072042;28;20171;-72
2023/04/26 00:22:59;;;;;;;14.13;2.55;;;28.00;99.90;;;;;;5071200;28;20199;-77
2023/04/26 00:25:27;;;;;;;15.90;2.72;;;27.70;99.90;;;;;;5071831;28;20255;-75
2023/04/26 00:31:17;;;;;;;13.17;3.33;;;26.30;99.90;;;;;;5070842;28;20203;-73
2023/04/26 00:33:45;;;;;;;16.10;3.40;;;25.80;99.90;;;;;;5071488;28;20223;-77
2023/04/26 00:36:14;;;;;;;11.60;2.53;;;25.20;99.90;;;;;;5071454;28;20259;-73
2023/04/26 00:38:41;;;;;;;14.90;3.80;;;24.80;99.90;;;;;;5071692;28;20179;-73
2023/04/26 00:41:09;;;;;;;9.00;2.97;;;25.00;99.90;;;;;;5071808;28;20233;-76
2023/04/26 00:43:38;;;;;;;17.83;3.50;;;25.90;99.90;;;;;;5071132;28;20625;-73
2023/04/26 00:46:10;;;;;;;12.50;3.00;;;26.60;99.90;;;;;;5071711;28;20184;-73
2023/04/26 00:48:38;;;;;;;17.67;3.20;;;26.60;99.90;;;;;;5071770;28;20213;-75
2023/04/26 00:51:06;;;;;;;11.80;2.50;;;26.60;99.90;;;;;;5071237;28;20206;-76
2023/04/26 00:53:34;;;;;;;12.23;3.20;;;26.70;99.90;;;;;;5071351;28;20203;-75
2023/04/26 00:56:03;;;;;;;10.33;3.17;;;26.50;99.90;;;;;;5071614;28;20178;-76
2023/04/26 00:58:31;;;;;;;16.50;3.53;;;26.00;99.90;;;;;;5071185;28;20180;-76
2023/04/26 01:00:59;;;;;;;13.27;3.10;;;25.80;99.90;;;;;;5070940;28;20203;-73
2023/04/26 01:03:27;;;;;;;14.17;3.30;;;25.80;99.90;;;;;;5071539;28;20176;-72
2023/04/26 01:05:55;;;;;;;10.90;2.90;;;26.10;99.90;;;;;;5070761;28;20191;-75
2023/04/26 01:08:24;;;;;;;12.67;3.07;;;26.00;99.90;;;;;;5070125;28;20577;-77
2023/04/26 01:10:52;;;;;;;14.60;3.13;;;25.70;99.90;;;;;;5071075;28;20176;-75
2023/04/26 01:13:21;;;;;;;12.70;3.07;;;25.70;99.90;;;;;;5070381;28;20227;-73
2023/04/26 01:15:49;;;;;;;14.83;4.10;;;25.20;99.90;;;;;;5071250;28;20183;-77
2023/04/26 01:18:17;;;;;;;9.87;2.80;;;24.90;99.90;;;;;;5071316;28;20525;-76
2023/04/26 01:20:45;;;;;;;12.43;2.47;;;24.80;99.90;;;;;;5070735;28;20204;-77
2023/04/26 01:23:13;;;;;;;15.10;2.77;;;24.60;99.90;;;;;;5071047;28;20183;-76
2023/04/26 01:25:41;;;;;;;12.53;3.37;;;24.40;99.90;;;;;;5071106;28;20188;-76
2023/04/26 01:28:09;;;;;;;19.43;4.00;;;24.30;99.90;;;;;;5069446;28;20325;-74
2023/04/26 01:30:37;;;;;;;13.20;3.80;;;24.20;99.90;;;;;;5071070;28;20187;-77
2023/04/26 01:33:05;;;;;;;13.07;3.00;;;23.90;99.90;;;;;;5073427;28;20203;-76
2023/04/26 01:35:33;;;;;;;15.50;2.80;;;23.90;99.90;;;;;;5074178;28;20188;-73
2023/04/26 01:38:00;;;;;;;12.03;3.40;;;23.80;99.90;;;;;;5074857;28;20226;-73
2023/04/26 01:40:28;;;;;;;18.93;3.73;;;23.80;99.90;;;;;;5074554;28;20191;-74
2023/04/26 01:42:56;;;;;;;15.27;3.83;;;23.60;99.90;;;;;;5073857;28;20198;-73
2023/04/26 01:45:24;;;;;;;13.80;3.10;;;23.80;99.90;;;;;;5074041;28;20633;-73
2023/04/26 01:47:52;;;;;;;22.43;4.10;;;23.80;99.90;;;;;;5074402;28;20184;-75
2023/04/26 01:50:20;;;;;;;10.97;3.03;;;23.40;99.90;;;;;;5073795;28;20604;-73
2023/04/26 01:52:47;;;;;;;10.97;3.10;;;23.20;99.90;;;;;;5074081;28;20299;-74
2023/04/26 01:55:15;;;;;;;9.53;2.97;;;23.20;99.90;;;;;;5074085;28;20188;-74
2023/04/26 01:57:43;;;;;;;13.13;3.27;;;23.30;99.90;;;;;;5073655;28;20251;-73
2023/04/26 02:00:11;;;;;;;14.43;3.07;;;23.30;99.90;;;;;;5072790;28;20186;-75
2023/04/26 02:02:39;;;;;;;11.17;3.27;;;23.40;99.90;;;;;;5073448;28;20205;-74
2023/04/26 02:05:08;;;;;;;14.37;3.87;;;23.30;99.90;;;;;;5073235;28;20184;-72
2023/04/26 02:07:36;;;;;;;18.10;3.77;;;23.10;99.90;;;;;;5074059;28;20188;-72
2023/04/26 02:10:04;;;;;;;15.70;3.20;;;23.00;99.90;;;;;;5073901;28;20275;-74
2023/04/26 02:12:32;;;;;;;17.17;3.67;;;22.80;99.90;;;;;;5073144;28;20228;-74
2023/04/26 02:15:00;;;;;;;13.30;3.30;;;22.70;99.90;;;;;;5072384;28;20199;-76
2023/04/26 02:17:28;;;;;;;8.30;2.63;;;22.70;99.90;;;;;;5073846;28;20222;-74
2023/04/26 02:19:55;;;;;;;11.73;2.93;;;22.70;99.90;;;;;;5073308;28;20212;-74
2023/04/26 02:22:24;;;;;;;13.43;2.60;;;22.70;99.90;;;;;;5073413;28;20208;-72
2023/04/26 02:28:15;;;;;;;15.20;3.23;;;23.10;99.90;;;;;;5072989;28;20252;-75
2023/04/26 02:30:43;;;;;;;19.70;3.43;;;23.20;99.90;;;;;;5073463;28;20186;-72
2023/04/26 02:33:11;;;;;;;7.83;2.57;;;23.10;99.90;;;;;;5073429;28;20211;-72
2023/04/26 02:35:39;;;;;;;13.33;2.73;;;23.10;99.90;;;;;;5072957;28;21041;-74
2023/04/26 02:38:07;;;;;;;16.70;3.67;;;22.90;99.90;;;;;;5073379;28;20175;-73
2023/04/26 02:40:35;;;;;;;10.27;2.77;;;22.90;99.90;;;;;;5073352;28;20182;-74
2023/04/26 02:43:03;;;;;;;8.63;2.90;;;23.10;99.90;;;;;;5072629;28;20194;-73
2023/04/26 02:45:30;;;;;;;11.53;2.63;;;23.10;99.90;;;;;;5072933;28;20195;-69
2023/04/26 02:47:58;;;;;;;12.10;2.90;;;23.20;99.90;;;;;;5073039;28;20237;-75
2023/04/26 02:50:26;;;;;;;17.20;2.67;;;23.20;99.90;;;;;;5072242;28;20633;-74
2023/04/26 02:52:54;;;;;;;12.47;3.03;;;23.10;99.90;;;;;;5073513;28;20286;-73
2023/04/26 02:55:22;;;;;;;9.27;2.63;;;23.70;99.90;;;;;;5074483;28;20233;-74
2023/04/26 02:57:49;;;;;;;15.73;3.47;;;23.90;99.90;;;;;;5074044;28;20176;-72
2023/04/26 03:00:17;;;;;;;12.60;2.67;;;24.10;99.90;;;;;;5074276;28;20266;-74
2023/04/26 03:02:45;;;;;;;14.63;3.30;;;24.20;99.90;;;;;;5073833;28;20264;-75
2023/04/26 03:05:13;;;;;;;12.03;3.17;;;24.10;99.90;;;;;;5074139;28;20632;-74
2023/04/26 03:07:40;;;;;;;12.57;3.80;;;23.90;99.90;;;;;;5073909;28;20226;-74
2023/04/26 03:10:09;;;;;;;17.00;3.30;;;23.90;99.90;;;;;;5073965;28;20203;-75
2023/04/26 03:12:37;;;;;;;14.93;3.27;;;24.20;99.90;;;;;;5073552;28;20218;-74
2023/04/26 03:15:05;;;;;;;12.10;2.97;;;24.60;99.90;;;;;;5072818;28;20233;-74
2023/04/26 03:17:33;;;;;;;10.50;2.93;;;24.70;99.90;;;;;;5074057;28;20168;-72
2023/04/26 03:20:01;;;;;;;9.73;2.73;;;24.60;99.90;;;;;;5073605;28;20214;-73
2023/04/26 03:22:29;;;;;;;14.97;2.80;;;24.60;99.90;;;;;;5073739;28;20217;-75
2023/04/26 03:24:57;;;;;;;20.70;3.43;;;25.00;99.90;;;;;;5073232;28;20167;-71
2023/04/26 03:27:24;;;;;;;6.03;2.37;;;24.90;99.90;;;;;;5073417;28;20168;-69
2023/04/26 03:29:52;;;;;;;10.23;2.30;;;24.80;99.90;;;;;;5073349;28;20597;-71
2023/04/26 03:32:20;;;;;;;6.67;1.73;;;24.80;99.90;;;;;;5073655;28;20698;-71
2023/04/26 03:34:48;;;;;;;8.57;2.30;;;24.80;99.90;;;;;;5073575;28;20572;-71
2023/04/26 03:37:16;;;;;;;15.43;2.30;;;25.00;99.90;;;;;;5073202;28;20206;-71
2023/04/26 03:39:44;;;;;;;10.07;2.07;;;25.00;99.90;;;;;;5073385;28;20653;-71
2023/04/26 03:42:12;;;;;;;7.67;2.43;;;25.00;99.90;;;;;;5073682;28;20174;-70
2023/04/26 03:44:39;;;;;;;8.20;2.00;;;25.50;99.90;;;;;;5073393;28;20172;-70
2023/04/26 03:47:07;;;;;;;9.13;1.83;;;26.00;99.90;;;;;;5073485;28;20630;-70
2023/04/26 03:49:35;;;;;;;6.30;1.57;;;26.20;99.90;;;;;;5073168;28;20182;-70
2023/04/26 03:52:03;;;;;;;10.83;2.20;;;26.50;99.90;;;;;;5073306;28;20282;-71
2023/04/26 03:54:30;;;;;;;7.70;2.03;;;26.20;99.90;;;;;;5072638;28;20661;-70
2023/04/26 03:56:58;;;;;;;5.77;1.47;;;26.70;99.90;;;;;;5073378;28;20179;-69
2023/04/26 03:59:26;;;;;;;6.33;1.60;;;27.10;99.90;;;;;;5073113;28;20180;-69
2023/04/26 04:01:54;;;;;;;7.30;1.67;;;27.40;99.90;;;;;;5073314;28;20621;-71
2023/04/26 04:04:21;;;;;;;8.13;2.20;;;27.30;99.90;;;;;;5073170;28;20198;-69
2023/04/26 04:06:49;;;;;;;7.30;1.90;;;27.00;99.90;;;;;;5073347;28;20175;-71
2023/04/26 04:09:17;;;;;;;7.37;2.23;;;27.00;99.90;;;;;;5073142;28;20183;-69
2023/04/26 04:11:45;;;;;;;9.27;2.20;;;27.10;99.90;;;;;;5071890;28;20184;-69
2023/04/26 04:14:20;;;;;;;4.80;1.73;;;27.00;99.90;;;;;;5072830;28;20238;-69
2023/04/26 04:16:48;;;;;;;6.53;1.60;;;26.70;99.90;;;;;;5073714;28;20250;-69
2023/04/26 04:19:16;;;;;;;9.43;2.30;;;26.10;99.90;;;;;;5072972;28;20184;-70
2023/04/26 04:21:44;;;;;;;6.03;1.70;;;25.50;99.90;;;;;;5072993;28;20262;-69
2023/04/26 04:24:12;;;;;;;6.70;2.00;;;25.10;99.90;;;;;;5073157;28;20593;-70
2023/04/26 04:26:40;;;;;;;7.47;1.70;;;25.00;99.90;;;;;;5072752;28;20191;-70
2023/04/26 04:29:08;;;;;;;9.47;2.00;;;24.80;99.90;;;;;;5072633;28;20237;-69
2023/04/26 04:31:37;;;;;;;6.40;2.30;;;24.70;99.90;;;;;;5070398;28;20207;-67
2023/04/26 04:34:05;;;;;;;5.97;1.93;;;24.40;99.90;;;;;;5071293;28;20300;-69
2023/04/26 04:36:32;;;;;;;9.43;2.20;;;24.10;99.90;;;;;;5071877;28;20183;-69
2023/04/26 04:39:01;;;;;;;5.67;1.67;;;24.00;99.90;;;;;;5070643;28;20285;-70
2023/04/26 04:41:28;;;;;;;10.03;2.00;;;24.10;99.90;;;;;;5065390;28;20179;-71
2023/04/26 04:43:56;;;;;;;6.80;1.83;;;24.00;99.90;;;;;;5070859;28;20226;-70
2023/04/26 04:46:24;;;;;;;8.63;2.33;;;24.00;99.90;;;;;;5071084;28;20180;-70
2023/04/26 04:48:52;;;;;;;12.07;2.33;;;24.10;99.90;;;;;;5070695;28;20241;-72
2023/04/26 04:51:20;;;;;;;5.57;1.90;;;24.00;99.90;;;;;;5071381;28;20949;-70
2023/04/26 04:53:47;;;;;;;16.50;2.40;;;23.90;99.90;;;;;;5071219;28;20216;-70
2023/04/26 04:56:17;;;;;;;4.83;1.57;;;23.70;99.90;;;;;;5071015;28;20180;-68
2023/04/26 04:58:45;;;;;;;5.23;1.57;;;23.50;99.90;;;;;;5070071;28;20180;-67
2023/04/26 05:01:13;;;;;;;15.03;3.23;;;23.50;99.90;;;;;;5069928;28;20248;-70
2023/04/26 05:03:41;;;;;;;7.63;1.70;;;23.40;99.90;;;;;;5070612;28;20250;-70
2023/04/26 05:06:09;;;;;;;10.37;1.80;;;23.40;99.90;;;;;;5072124;28;20191;-70
2023/04/26 05:08:37;;;;;;;9.00;1.93;;;23.30;99.90;;;;;;5075053;28;20220;-69
2023/04/26 05:11:05;;;;;;;10.93;1.90;;;23.40;99.90;;;;;;5074395;28;20180;-69
2023/04/26 05:13:33;;;;;;;7.90;1.90;;;23.40;99.90;;;;;;5075768;28;20296;-69
2023/04/26 05:16:01;;;;;;;7.90;1.97;;;23.40;99.90;;;;;;5074830;28;20212;-68
2023/04/26 05:18:29;;;;;;;8.77;1.73;;;23.40;99.90;;;;;;5074369;28;20187;-70
2023/04/26 05:20:57;;;;;;;6.43;1.50;;;23.40;99.90;;;;;;5074956;28;20526;-69
2023/04/26 05:23:25;;;;;;;6.73;1.63;;;23.60;99.90;;;;;;5075027;28;20268;-70
2023/04/26 05:25:53;;;;;;;7.23;1.50;;;23.80;99.90;;;;;;5074166;28;20184;-69
2023/04/26 05:28:21;;;;;;;8.70;1.87;;;23.80;99.90;;;;;;5074645;28;20180;-69
2023/04/26 05:30:48;;;;;;;6.53;1.40;;;23.80;99.90;;;;;;5074726;28;20532;-69
2023/04/26 05:33:16;;;;;;;9.13;1.63;;;23.80;99.90;;;;;;5074111;28;20226;-68
2023/04/26 05:35:44;;;;;;;4.43;1.30;;;23.60;99.90;;;;;;5074487;28;20195;-68
2023/04/26 05:38:14;;;;;;;7.50;1.63;;;23.40;99.90;;;;;;5074469;28;20267;-69
2023/04/26 05:40:41;;;;;;;10.47;1.63;;;23.40;99.90;;;;;;5073459;28;20183;-69
2023/04/26 05:43:09;;;;;;;6.73;1.70;;;23.30;99.90;;;;;;5074110;28;20218;-69
2023/04/26 05:45:37;;;;;;;3.07;1.23;;;23.20;99.90;;;;;;5074400;28;20669;-70
2023/04/26 05:48:05;;;;;;;8.23;1.70;;;23.20;99.90;;;;;;5073139;28;20183;-70
2023/04/26 05:50:33;;;;;;;3.87;1.43;;;22.90;99.90;;;;;;5073399;28;20191;-70
2023/04/26 05:53:00;;;;;;;8.90;1.70;;;22.80;99.90;;;;;;5074117;28;20211;-68
2023/04/26 05:55:28;;;;;;;7.53;1.53;;;22.70;99.90;;;;;;5072649;28;20567;-70
2023/04/26 05:57:57;;;;;;;4.37;1.70;;;22.70;99.90;;;;;;5074238;28;20707;-70
2023/04/26 06:00:25;;;;;;;3.03;1.20;;;22.70;99.90;;;;;;5074155;28;20176;-69
2023/04/26 06:02:53;;;;;;;5.70;1.30;;;22.70;99.90;;;;;;5073715;28;20668;-70
2023/04/26 06:05:21;;;;;;;5.27;1.20;;;22.60;99.90;;;;;;5072963;28;20187;-69
2023/04/26 06:07:48;;;;;;;10.07;1.60;;;22.50;99.90;;;;;;5073888;28;20653;-71
2023/04/26 06:10:16;;;;;;;5.23;1.33;;;22.40;99.90;;;;;;5072971;28;20224;-69
2023/04/26 06:12:45;;;;;;;6.60;1.53;;;22.40;99.90;;;;;;5073610;28;20223;-70
2023/04/26 06:15:13;;;;;;;6.23;1.40;;;22.20;99.90;;;;;;5074566;28;20199;-69
2023/04/26 06:17:43;;;;;;;6.27;1.87;;;22.10;99.90;;;;;;5073863;28;20186;-70
2023/04/26 06:20:11;;;;;;;4.03;1.70;;;22.00;99.90;;;;;;5074730;28;20586;-70
2023/04/26 06:22:39;;;;;;;10.23;1.53;;;22.00;99.90;;;;;;5074954;28;20179;-69
2023/04/26 06:25:07;;;;;;;6.80;1.80;;;21.90;99.90;;;;;;5074975;28;20245;-70
2023/04/26 06:27:35;;;;;;;6.90;1.93;;;21.90;99.90;;;;;;5074377;28;20590;-71
2023/04/26 06:30:03;;;;;;;5.37;1.53;;;21.80;99.90;;;;;;5073944;28;20244;-70
2023/04/26 06:32:31;;;;;;;7.60;2.00;;;21.80;99.90;;;;;;5093069;28;20179;-70
2023/04/26 06:34:58;;;;;;;5.57;1.50;;;21.80;99.90;;;;;;5092716;28;20640;-70
2023/04/26 06:37:27;;;;;;;8.80;1.67;;;21.70;99.90;;;;;;5094274;28;20171;-70
2023/04/26 06:39:55;;;;;;;3.77;1.30;;;21.80;99.90;;;;;;5093076;28;20720;-69
2023/04/26 06:42:22;;;;;;;10.97;1.63;;;21.70;99.90;;;;;;5094357;28;20201;-70
2023/04/26 06:44:50;;;;;;;6.50;1.70;;;21.80;99.90;;;;;;5094817;28;20171;-69
2023/04/26 06:47:18;;;;;;;7.30;1.80;;;21.60;99.90;;;;;;5093513;28;20229;-69
2023/04/26 06:49:46;;;;;;;8.30;1.73;;;21.50;99.90;;;;;;5094596;28;20529;-69
2023/04/26 06:52:13;;;;;;;4.67;1.63;;;21.50;99.90;;;;;;5094573;28;20694;-69
2023/04/26 06:54:41;;;;;;;6.53;2.10;;;21.40;99.90;;;;;;5094305;28;20207;-69
2023/04/26 06:57:09;;;;;;;10.17;1.77;;;21.40;99.90;;;;;;5094414;28;20171;-69
2023/04/26 06:59:37;;;;;;;8.70;1.87;;;21.30;99.90;;;;;;5094085;28;20221;-69
2023/04/26 07:02:05;;;;;;;5.70;1.47;;;21.20;99.90;;;;;;5094599;28;20182;-70
2023/04/26 07:04:32;;;;;;;8.93;2.00;;;21.20;99.90;;;;;;5094107;28;20175;-68
2023/04/26 07:07:00;;;;;;;5.83;1.67;;;21.10;99.90;;;;;;5094192;28;20308;-68
2023/04/26 07:09:28;;;;;;;8.97;2.07;;;21.10;99.90;;;;;;5094118;28;20710;-70
2023/04/26 07:11:56;;;;;;;11.50;2.20;;;21.00;99.90;;;;;;5094009;28;20621;-70
2023/04/26 07:14:24;;;;;;;7.70;1.97;;;21.00;99.90;;;;;;5094014;28;20280;-68
2023/04/26 07:16:52;;;;;;;8.27;1.60;;;20.90;99.90;;;;;;5094011;28;20174;-70
2023/04/26 07:19:19;;;;;;;9.93;1.93;;;20.80;99.90;;;;;;5092599;28;20734;-70
2023/04/26 07:21:47;;;;;;;7.57;2.00;;;20.70;99.90;;;;;;5094083;28;20268;-69
2023/04/26 07:24:15;;;;;;;9.77;2.23;;;20.60;99.90;;;;;;5093879;28;20171;-69
2023/04/26 07:26:43;;;;;;;10.87;2.10;;;20.50;99.90;;;;;;5093903;28;20185;-68
2023/04/26 07:29:11;;;;;;;10.07;2.20;;;20.40;99.90;;;;;;5093184;28;20642;-69
2023/04/26 07:31:38;;;;;;;6.00;1.70;;;20.40;99.90;;;;;;5093346;28;20171;-68
2023/04/26 07:34:06;;;;;;;12.53;2.00;;;20.50;99.90;;;;;;5092498;28;20248;-71
2023/04/26 07:36:34;;;;;;;7.83;1.77;;;20.50;99.90;;;;;;5093765;28;20270;-70
2023/04/26 07:39:04;;;;;;;15.07;2.60;;;20.40;99.90;;;;;;5093580;28;20271;-70
2023/04/26 07:41:32;;;;;;;9.00;2.60;;;20.40;99.90;;;;;;5093787;28;20222;-68
2023/04/26 07:43:59;;;;;;;11.67;2.67;;;20.30;99.90;;;;;;5093762;28;20179;-70
2023/04/26 07:46:27;;;;;;;8.97;2.47;;;20.20;99.90;;;;;;5075366;28;20175;-70
2023/04/26 07:48:55;;;;;;;11.50;2.17;;;20.00;99.90;;;;;;5093542;28;20180;-69
2023/04/26 07:51:23;;;;;;;14.40;2.67;;;20.10;99.90;;;;;;5093588;28;20178;-69
2023/04/26 07:53:51;;;;;;;10.40;2.27;;;20.00;99.90;;;;;;5093616;28;20209;-70
2023/04/26 07:56:19;;;;;;;9.83;2.00;;;20.00;99.90;;;;;;5093551;28;20170;-69
2023/04/26 07:58:46;;;;;;;8.63;1.90;;;20.00;99.90;;;;;;5093399;28;20200;-69
2023/04/26 08:01:14;;;;;;;14.13;2.30;;;20.00;99.90;;;;;;5093516;28;20564;-70
2023/04/26 08:03:42;;;;;;;8.30;2.00;;;20.00;99.90;;;;;;5093562;28;20184;-69
2023/04/26 08:06:10;;;;;;;5.93;1.90;;;20.00;99.90;;;;;;5093509;28;20239;-69
2023/04/26 08:08:43;;;;;;;10.90;2.10;;;19.80;99.90;;;;;;5093097;28;20197;-70
2023/04/26 08:11:11;;;;;;;9.63;2.10;;;19.50;99.90;;;;;;5093494;28;20171;-69
2023/04/26 08:13:39;;;;;;;10.83;2.40;;;19.30;99.90;;;;;;5093032;28;20284;-69
2023/04/26 08:16:07;;;;;;;10.87;2.40;;;19.20;99.90;;;;;;5093314;28;20177;-69
2023/04/26 08:18:35;;;;;;;11.37;2.80;;;19.10;99.90;;;;;;5093222;28;20235;-69
2023/04/26 08:21:03;;;;;;;14.80;1.90;;;19.10;99.90;;;;;;5093264;28;20186;-69
2023/04/26 08:23:35;;;;;;;11.33;2.93;;;19.10;99.90;;;;;;5093389;28;20175;-68
2023/04/26 08:26:03;;;;;;;13.87;2.60;;;19.10;99.90;;;;;;5093054;28;20205;-69
2023/04/26 08:28:31;;;;;;;7.03;1.93;;;19.00;99.90;;;;;;5092914;28;20222;-70
2023/04/26 08:30:59;;;;;;;5.70;2.00;;;18.80;99.90;;;;;;5093084;28;20535;-68
2023/04/26 08:33:27;;;;;;;8.40;2.03;;;18.70;99.90;;;;;;5093081;28;20296;-69
2023/04/26 08:35:55;;;;;;;13.33;2.07;;;18.60;99.90;;;;;;5093162;28;20205;-70
2023/04/26 08:38:23;;;;;;;8.57;2.10;;;18.50;99.90;;;;;;5092991;28;20528;-69
2023/04/26 08:40:52;;;;;;;15.67;2.87;;;18.40;99.90;;;;;;5092363;28;20179;-69
2023/04/26 08:43:20;;;;;;;9.30;2.57;;;18.40;99.90;;;;;;5097196;28;20183;-70
2023/04/26 08:45:48;;;;;;;6.37;2.17;;;18.30;99.90;;;;;;5097234;28;20171;-69
2023/04/26 08:48:17;;;;;;;7.10;1.97;;;18.20;99.90;;;;;;5096941;28;20538;-69
2023/04/26 08:50:45;;;;;;;8.63;2.13;;;18.10;99.90;;;;;;5097191;28;20199;-70
2023/04/26 08:53:17;;;;;;;5.43;2.13;;;18.10;99.90;;;;;;5096893;28;20211;-69
2023/04/26 08:55:51;;;;;;;8.93;2.33;;;18.00;99.90;;;;;;5096995;28;20167;-69
2023/04/26 08:58:20;;;;;;;10.00;2.27;;;18.00;99.90;;;;;;5096775;28;20182;-68
2023/04/26 09:00:49;;;;;;;9.20;2.03;;;17.80;99.90;;;;;;5097007;28;20535;-69
2023/04/26 09:03:17;;;;;;;11.67;2.40;;;17.70;99.90;;;;;;5096690;28;20659;-69
2023/04/26 09:05:46;;;;;;;7.33;2.20;;;17.80;99.90;;;;;;5095413;28;20664;-69
2023/04/26 09:08:20;;;;;;;9.00;2.60;;;17.70;99.90;;;;;;5096892;28;20167;-69
2023/04/26 09:10:48;;;;;;;7.67;2.80;;;17.60;99.90;;;;;;5096757;28;20183;-68
2023/04/26 09:13:16;;;;;;;11.70;2.23;;;17.60;99.90;;;;;;5096439;28;20301;-68
2023/04/26 09:15:47;;;;;;;8.00;2.40;;;17.50;99.90;;;;;;5096575;28;20177;-68
2023/04/26 09:18:22;;;;;;;7.47;2.30;;;17.50;99.90;;;;;;5097053;28;20194;-69
2023/04/26 09:21:07;;;;;;;9.17;2.67;;;17.40;99.90;;;;;;5096515;28;20182;-68
2023/04/26 09:23:35;;;;;;;10.60;2.80;;;17.40;99.90;;;;;;5096656;28;20296;-69
2023/04/26 09:26:19;;;;;;;9.43;2.60;;;17.30;99.90;;;;;;5096395;28;20175;-68
2023/04/26 09:28:47;;;;;;;10.87;2.80;;;17.30;99.90;;;;;;5096051;28;20220;-68
2023/04/26 09:31:45;;;;;;;10.13;3.20;;;17.30;99.90;;;;;;5096249;28;20699;-68
2023/04/26 09:34:14;;;;;;;10.90;5.00;;;17.30;99.90;;;;;;5095851;28;20223;-67
2023/04/26 09:36:56;;;;;;;10.03;4.53;;;17.40;99.90;;;;;;5096099;28;20228;-70
2023/04/26 09:39:39;;;;;;;10.10;3.50;;;17.30;99.90;;;;;;5096181;28;20640;-69
2023/04/26 09:42:08;;;;;;;11.60;4.13;;;17.30;99.90;;;;;;5096103;28;20182;-69
2023/04/26 09:44:37;;;;;;;14.23;3.63;;;17.40;99.90;;;;;;5096219;28;20180;-68
2023/04/26 09:47:10;;;;;;;14.23;4.53;;;17.30;99.90;;;;;;5096132;28;20226;-68
2023/04/26 09:49:45;;;;;;;11.93;4.60;;;17.30;99.90;;;;;;5096077;28;20186;-69
2023/04/26 09:52:13;;;;;;;10.87;4.60;;;17.20;99.90;;;;;;5095233;28;20644;-68
2023/04/26 09:54:46;;;;;;;12.47;3.67;;;17.20;99.90;;;;;;5095486;28;20211;-69
2023/04/26 09:57:16;;;;;;;10.17;3.60;;;17.10;99.90;;;;;;5095745;28;20176;-69
2023/04/26 09:59:45;;;;;;;11.47;3.43;;;17.10;99.90;;;;;;5095593;28;20198;-68
2023/04/26 10:02:22;;;;;;;10.67;3.37;;;17.00;99.90;;;;;;5095769;28;20167;-68
2023/04/26 10:04:52;;;;;;;8.70;3.10;;;17.00;99.90;;;;;;5095562;28;20175;-69
2023/04/26 10:07:21;;;;;;;10.57;3.50;;;16.90;99.90;;;;;;5095645;28;20545;-69
2023/04/26 10:09:50;;;;;;;9.17;3.20;;;16.90;99.90;;;;;;5094399;28;20543;-68
2023/04/26 10:12:19;;;;;;;11.83;3.13;;;16.80;99.90;;;;;;5095390;28;20222;-69
2023/04/26 10:14:48;;;;;;;10.57;2.93;;;16.70;99.90;;;;;;5095433;28;20218;-68
2023/04/26 10:17:18;;;;;;;16.50;4.07;;;16.70;99.90;;;;;;5095952;28;20656;-68
2023/04/26 10:19:50;;;;;;;7.97;3.20;;;16.60;99.90;;;;;;5095471;28;20521;-68
2023/04/26 10:22:24;;;;;;;9.27;3.43;;;16.60;99.90;;;;;;5095548;28;20188;-68
2023/04/26 10:24:53;;;;;;;11.73;3.87;;;16.50;99.90;;;;;;5094017;28;20192;-69
2023/04/26 10:27:45;;;;;;;10.73;3.60;;;16.60;99.90;;;;;;5095188;28;20181;-69
2023/04/26 10:30:18;;;;;;;7.87;4.37;;;16.50;99.90;;;;;;5095466;28;20180;-68
2023/04/26 10:32:58;;;;;;;10.50;4.73;;;16.50;99.90;;;;;;5095145;28;20171;-69
2023/04/26 10:35:29;;;;;;;13.57;4.87;;;16.50;99.90;;;;;;5095577;28;20213;-68
2023/04/26 10:38:03;;;;;;;13.23;4.37;;;16.60;99.90;;;;;;5095020;28;20592;-68
2023/04/26 10:40:39;;;;;;;12.70;4.30;;;16.50;99.90;;;;;;5095327;28;20262;-68
2023/04/26 10:43:10;;;;;;;6.80;3.50;;;16.50;99.90;;;;;;5095171;28;20178;-69
2023/04/26 10:45:39;;;;;;;12.50;3.73;;;16.50;99.90;;;;;;5095339;28;20180;-69
2023/04/26 10:48:20;;;;;;;13.83;4.53;;;16.50;99.90;;;;;;5094605;28;20228;-69
2023/04/26 10:51:17;;;;;;;9.83;4.43;;;16.50;99.90;;;;;;5094990;28;20263;-68
2023/04/26 10:53:45;;;;;;;8.30;3.93;;;16.50;99.90;;;;;;5095272;28;20222;-68
2023/04/26 10:56:35;;;;;;;11.30;4.03;;;16.50;99.90;;;;;;5093465;28;20191;-68
2023/04/26 10:59:10;;;;;;;6.77;4.30;;;16.50;99.90;;;;;;5094858;28;20171;-68
2023/04/26 11:01:40;;;;;;;9.57;4.07;;;16.50;99.90;;;;;;5093519;28;20254;-69
2023/04/26 11:04:10;;;;;;;12.67;4.50;;;16.50;99.90;;;;;;5094503;28;20210;-68
2023/04/26 11:06:59;;;;;;;12.23;3.93;;;16.40;99.90;;;;;;5094461;28;20167;-68
2023/04/26 11:09:40;;;;;;;10.47;4.10;;;16.50;99.90;;;;;;5083903;28;20183;-70
2023/04/26 11:12:15;;;;;;;9.10;4.20;;;16.50;99.90;;;;;;5073261;28;20210;-70
2023/04/26 11:14:44;;;;;;;12.03;4.87;;;16.60;99.90;;;;;;5073404;28;20226;-71
2023/04/26 11:17:13;;;;;;;6.97;3.33;;;16.60;99.90;;;;;;5072817;28;20357;-71
2023/04/26 11:19:46;;;;;;;14.13;4.47;;;16.70;99.90;;;;;;5073971;28;20187;-71
2023/04/26 11:22:15;;;;;;;12.17;4.20;;;16.70;99.90;;;;;;5074091;28;20172;-71
2023/04/26 11:24:43;;;;;;;12.40;4.53;;;16.70;99.90;;;;;;5074192;28;20536;-73
2023/04/26 11:27:11;;;;;;;10.30;4.27;;;16.80;99.90;;;;;;5072205;28;20182;-70
2023/04/26 11:29:39;;;;;;;14.07;4.13;;;16.80;99.90;;;;;;5073538;28;20176;-72
2023/04/26 11:32:07;;;;;;;11.83;4.10;;;16.80;99.90;;;;;;5073731;28;20185;-71
2023/04/26 11:34:40;;;;;;;14.90;4.70;;;16.80;99.90;;;;;;5073389;28;20262;-71
2023/04/26 11:37:08;;;;;;;12.23;4.63;;;16.70;99.90;;;;;;5073426;28;20195;-71
2023/04/26 11:39:37;;;;;;;10.63;3.93;;;16.60;99.90;;;;;;5072899;28;20185;-69
2023/04/26 11:42:08;;;;;;;9.47;3.73;;;16.60;99.90;;;;;;5073375;28;20638;-71
2023/04/26 11:44:36;;;;;;;14.60;4.47;;;16.60;99.90;;;;;;5073028;28;20229;-72
2023/04/26 11:47:08;;;;;;;12.83;4.30;;;16.60;99.90;;;;;;5073204;28;20187;-71
2023/04/26 11:49:37;;;;;;;14.23;4.83;;;16.60;99.90;;;;;;5072549;28;20187;-71
2023/04/26 11:52:05;;;;;;;14.00;4.67;;;16.50;99.90;;;;;;5073224;28;20547;-71
2023/04/26 11:54:36;;;;;;;14.87;4.30;;;16.50;99.90;;;;;;5071807;28;20212;-71
2023/04/26 11:57:17;;;;;;;9.03;4.10;;;16.40;99.90;;;;;;5072834;28;20172;-72
2023/04/26 11:59:46;;;;;;;10.80;4.27;;;16.40;99.90;;;;;;5072972;28;20176;-72
2023/04/26 12:02:13;;;;;;;10.37;4.00;;;16.30;99.90;;;;;;5072884;28;20179;-71
2023/04/26 12:04:42;;;;;;;10.60;4.20;;;16.40;99.90;;;;;;5072725;28;20258;-70
2023/04/26 12:07:10;;;;;;;14.53;4.40;;;16.40;99.90;;;;;;5072907;28;20258;-72
2023/04/26 12:09:41;;;;;;;11.90;4.20;;;16.40;99.90;;;;;;5072551;28;20182;-71
2023/04/26 12:12:10;;;;;;;13.33;4.63;;;16.40;99.90;;;;;;5072843;28;20228;-71
2023/04/26 12:14:39;;;;;;;9.07;4.27;;;16.40;99.90;;;;;;5072423;28;20582;-73
2023/04/26 12:17:09;;;;;;;10.23;4.00;;;16.30;99.90;;;;;;5071740;28;20555;-71
2023/04/26 12:19:41;;;;;;;10.53;3.77;;;16.30;99.90;;;;;;5072668;28;20183;-71
2023/04/26 12:22:10;;;;;;;15.57;4.37;;;16.40;99.90;;;;;;5072729;28;20203;-72
2023/04/26 12:24:38;;;;;;;16.90;3.90;;;16.30;99.90;;;;;;5072406;28;20264;-70
2023/04/26 12:27:06;;;;;;;12.33;4.73;;;16.30;99.90;;;;;;5072703;28;20295;-70
2023/04/26 12:29:35;;;;;;;9.47;4.13;;;16.30;99.90;;;;;;5072173;28;20206;-72
2023/04/26 12:32:03;;;;;;;12.50;4.30;;;16.20;99.90;;;;;;5072814;28;20183;-71
2023/04/26 12:34:30;;;;;;;13.03;4.80;;;16.20;99.90;;;;;;5072522;28;20247;-71
2023/04/26 12:36:58;;;;;;;10.70;4.63;;;16.10;99.90;;;;;;5072341;28;20179;-70
2023/04/26 12:39:26;;;;;;;12.67;4.50;;;16.10;99.90;;;;;;5072672;28;20196;-71
2023/04/26 12:41:54;;;;;;;13.93;4.53;;;16.00;99.90;;;;;;5072695;28;20176;-70
2023/04/26 12:44:22;;;;;;;9.83;3.87;;;15.90;99.90;;;;;;5072346;28;20176;-71
2023/04/26 12:46:50;;;;;;;10.90;4.17;;;15.80;99.90;;;;;;5072498;28;20167;-69
2023/04/26 12:49:18;;;;;;;10.37;3.90;;;15.80;99.90;;;;;;5072473;28;20172;-72
2023/04/26 12:51:46;;;;;;;11.23;4.50;;;15.80;99.90;;;;;;5072452;28;20178;-72
2023/04/26 12:54:13;;;;;;;14.17;4.70;;;15.80;99.90;;;;;;5071547;28;20215;-71
2023/04/26 12:56:45;;;;;;;9.50;4.07;;;15.70;99.90;;;;;;5072078;28;20172;-72
2023/04/26 12:59:13;;;;;;;13.20;4.30;;;15.70;99.90;;;;;;5071388;28;20180;-71
2023/04/26 13:01:41;;;;;;;9.63;4.30;;;15.60;99.90;;;;;;5072230;28;20251;-71
2023/04/26 13:04:08;;;;;;;6.97;3.70;;;15.70;99.90;;;;;;5072262;28;20188;-71